sensor_id;sensor_type;location;lat;lon;timestamp;P1;durP1;ratioP1;P2;durP2;ratioP2
37785;SDS011;23625;48.784;9.336;2022-10-16T00:01:58;4.18;;;1.13;;
37785;SDS011;23625;48.784;9.336;2022-10-16T00:04:24;16.00;;;1.95;;
37785;SDS011;23625;48.784;9.336;2022-10-16T00:06:49;14.02;;;1.65;;
37785;SDS011;23625;48.784;9.336;2022-10-16T00:09:15;11.02;;;1.60;;
37785;SDS011;23625;48.784;9.336;2022-10-16T00:11:41;19.67;;;1.90;;
37785;SDS011;23625;48.784;9.336;2022-10-16T00:14:08;26.88;;;2.00;;
37785;SDS011;23625;48.784;9.336;2022-10-16T00:16:36;7.05;;;1.75;;
37785;SDS011;23625;48.784;9.336;2022-10-16T00:19:02;11.05;;;1.55;;
37785;SDS011;23625;48.784;9.336;2022-10-16T00:21:29;8.75;;;2.75;;
37785;SDS011;23625;48.784;9.336;2022-10-16T00:23:57;8.90;;;1.50;;
37785;SDS011;23625;48.784;9.336;2022-10-16T00:26:25;9.00;;;1.50;;
37785;SDS011;23625;48.784;9.336;2022-10-16T00:28:51;6.35;;;1.90;;
37785;SDS011;23625;48.784;9.336;2022-10-16T00:31:18;4.68;;;1.40;;
37785;SDS011;23625;48.784;9.336;2022-10-16T00:33:45;7.32;;;1.55;;
37785;SDS011;23625;48.784;9.336;2022-10-16T00:36:12;4.75;;;1.38;;
37785;SDS011;23625;48.784;9.336;2022-10-16T00:38:40;10.40;;;1.63;;
37785;SDS011;23625;48.784;9.336;2022-10-16T00:41:06;3.72;;;1.35;;
37785;SDS011;23625;48.784;9.336;2022-10-16T00:46:41;9.90;;;1.80;;
37785;SDS011;23625;48.784;9.336;2022-10-16T00:49:11;10.02;;;1.77;;
37785;SDS011;23625;48.784;9.336;2022-10-16T00:51:43;7.28;;;1.65;;
37785;SDS011;23625;48.784;9.336;2022-10-16T00:54:13;10.88;;;1.65;;
37785;SDS011;23625;48.784;9.336;2022-10-16T00:56:42;7.07;;;1.52;;
37785;SDS011;23625;48.784;9.336;2022-10-16T00:59:12;9.10;;;1.88;;
37785;SDS011;23625;48.784;9.336;2022-10-16T01:01:41;8.50;;;2.15;;
37785;SDS011;23625;48.784;9.336;2022-10-16T01:04:07;7.43;;;1.55;;
37785;SDS011;23625;48.784;9.336;2022-10-16T01:06:36;8.27;;;1.67;;
37785;SDS011;23625;48.784;9.336;2022-10-16T01:09:24;10.32;;;1.73;;
37785;SDS011;23625;48.784;9.336;2022-10-16T01:17:16;7.68;;;2.20;;
37785;SDS011;23625;48.784;9.336;2022-10-16T01:20:01;8.23;;;2.00;;
37785;SDS011;23625;48.784;9.336;2022-10-16T01:28:18;5.18;;;1.70;;
37785;SDS011;23625;48.784;9.336;2022-10-16T01:30:46;7.82;;;1.65;;
37785;SDS011;23625;48.784;9.336;2022-10-16T01:35:54;13.20;;;2.13;;
37785;SDS011;23625;48.784;9.336;2022-10-16T01:41:01;9.93;;;1.40;;
37785;SDS011;23625;48.784;9.336;2022-10-16T01:43:37;8.82;;;1.65;;
37785;SDS011;23625;48.784;9.336;2022-10-16T01:46:10;5.15;;;1.55;;
37785;SDS011;23625;48.784;9.336;2022-10-16T01:48:38;9.18;;;1.42;;
37785;SDS011;23625;48.784;9.336;2022-10-16T01:51:06;17.10;;;1.60;;
37785;SDS011;23625;48.784;9.336;2022-10-16T01:53:35;13.68;;;1.95;;
37785;SDS011;23625;48.784;9.336;2022-10-16T01:56:02;14.18;;;1.83;;
37785;SDS011;23625;48.784;9.336;2022-10-16T01:58:30;4.75;;;1.55;;
37785;SDS011;23625;48.784;9.336;2022-10-16T02:01:00;8.77;;;1.80;;
37785;SDS011;23625;48.784;9.336;2022-10-16T02:03:27;6.43;;;1.10;;
37785;SDS011;23625;48.784;9.336;2022-10-16T02:05:54;12.15;;;1.75;;
37785;SDS011;23625;48.784;9.336;2022-10-16T02:08:23;3.70;;;1.45;;
37785;SDS011;23625;48.784;9.336;2022-10-16T02:10:51;11.75;;;1.27;;
37785;SDS011;23625;48.784;9.336;2022-10-16T02:13:17;9.35;;;1.40;;
37785;SDS011;23625;48.784;9.336;2022-10-16T02:16:07;11.45;;;1.73;;
37785;SDS011;23625;48.784;9.336;2022-10-16T02:18:34;5.15;;;1.27;;
37785;SDS011;23625;48.784;9.336;2022-10-16T02:28:42;5.70;;;1.13;;
37785;SDS011;23625;48.784;9.336;2022-10-16T02:31:14;4.40;;;1.25;;
37785;SDS011;23625;48.784;9.336;2022-10-16T02:33:45;5.57;;;1.35;;
37785;SDS011;23625;48.784;9.336;2022-10-16T02:36:11;6.65;;;1.17;;
37785;SDS011;23625;48.784;9.336;2022-10-16T02:38:37;9.55;;;1.65;;
37785;SDS011;23625;48.784;9.336;2022-10-16T02:41:04;7.05;;;1.50;;
37785;SDS011;23625;48.784;9.336;2022-10-16T02:43:31;13.98;;;1.60;;
37785;SDS011;23625;48.784;9.336;2022-10-16T02:45:58;7.10;;;1.40;;
37785;SDS011;23625;48.784;9.336;2022-10-16T02:48:24;10.95;;;1.30;;
37785;SDS011;23625;48.784;9.336;2022-10-16T02:50:50;9.48;;;1.20;;
37785;SDS011;23625;48.784;9.336;2022-10-16T02:53:16;9.23;;;1.35;;
37785;SDS011;23625;48.784;9.336;2022-10-16T02:55:41;5.03;;;1.10;;
37785;SDS011;23625;48.784;9.336;2022-10-16T02:58:07;6.70;;;1.02;;
37785;SDS011;23625;48.784;9.336;2022-10-16T03:00:33;3.78;;;1.65;;
37785;SDS011;23625;48.784;9.336;2022-10-16T03:02:58;8.02;;;1.10;;
37785;SDS011;23625;48.784;9.336;2022-10-16T03:05:24;6.35;;;1.17;;
37785;SDS011;23625;48.784;9.336;2022-10-16T03:07:49;6.57;;;1.42;;
37785;SDS011;23625;48.784;9.336;2022-10-16T03:10:15;5.20;;;1.20;;
37785;SDS011;23625;48.784;9.336;2022-10-16T03:12:41;4.72;;;1.00;;
37785;SDS011;23625;48.784;9.336;2022-10-16T03:15:06;10.65;;;1.90;;
37785;SDS011;23625;48.784;9.336;2022-10-16T03:17:32;8.73;;;1.35;;
37785;SDS011;23625;48.784;9.336;2022-10-16T03:19:58;8.70;;;1.17;;
37785;SDS011;23625;48.784;9.336;2022-10-16T03:22:23;7.90;;;1.05;;
37785;SDS011;23625;48.784;9.336;2022-10-16T03:24:49;11.35;;;1.17;;
37785;SDS011;23625;48.784;9.336;2022-10-16T03:27:15;6.45;;;0.90;;
37785;SDS011;23625;48.784;9.336;2022-10-16T03:29:40;6.10;;;1.00;;
37785;SDS011;23625;48.784;9.336;2022-10-16T03:32:06;7.93;;;2.10;;
37785;SDS011;23625;48.784;9.336;2022-10-16T03:34:31;7.40;;;1.30;;
37785;SDS011;23625;48.784;9.336;2022-10-16T03:36:57;4.43;;;1.35;;
37785;SDS011;23625;48.784;9.336;2022-10-16T03:39:22;9.60;;;1.13;;
37785;SDS011;23625;48.784;9.336;2022-10-16T03:41:48;9.35;;;1.45;;
37785;SDS011;23625;48.784;9.336;2022-10-16T03:44:14;2.22;;;1.00;;
37785;SDS011;23625;48.784;9.336;2022-10-16T03:46:40;6.72;;;1.20;;
37785;SDS011;23625;48.784;9.336;2022-10-16T03:49:05;10.32;;;1.98;;
37785;SDS011;23625;48.784;9.336;2022-10-16T03:51:31;8.63;;;1.30;;
37785;SDS011;23625;48.784;9.336;2022-10-16T03:53:57;4.00;;;1.20;;
37785;SDS011;23625;48.784;9.336;2022-10-16T03:56:22;3.38;;;0.90;;
37785;SDS011;23625;48.784;9.336;2022-10-16T03:58:48;1.90;;;1.40;;
37785;SDS011;23625;48.784;9.336;2022-10-16T04:01:14;8.73;;;1.25;;
37785;SDS011;23625;48.784;9.336;2022-10-16T04:03:39;8.80;;;1.55;;
37785;SDS011;23625;48.784;9.336;2022-10-16T04:06:05;3.03;;;1.40;;
37785;SDS011;23625;48.784;9.336;2022-10-16T04:08:30;3.42;;;1.10;;
37785;SDS011;23625;48.784;9.336;2022-10-16T04:10:59;7.90;;;1.20;;
37785;SDS011;23625;48.784;9.336;2022-10-16T04:13:24;15.57;;;1.67;;
37785;SDS011;23625;48.784;9.336;2022-10-16T04:15:50;16.00;;;1.42;;
37785;SDS011;23625;48.784;9.336;2022-10-16T04:18:15;9.52;;;1.23;;
37785;SDS011;23625;48.784;9.336;2022-10-16T04:20:41;17.73;;;1.30;;
37785;SDS011;23625;48.784;9.336;2022-10-16T04:23:07;9.68;;;1.30;;
37785;SDS011;23625;48.784;9.336;2022-10-16T04:25:32;9.45;;;1.17;;
37785;SDS011;23625;48.784;9.336;2022-10-16T04:27:58;7.55;;;2.05;;
37785;SDS011;23625;48.784;9.336;2022-10-16T04:30:23;6.45;;;2.35;;
37785;SDS011;23625;48.784;9.336;2022-10-16T04:32:50;8.23;;;1.23;;
37785;SDS011;23625;48.784;9.336;2022-10-16T04:35:17;17.65;;;1.70;;
37785;SDS011;23625;48.784;9.336;2022-10-16T04:37:43;5.78;;;0.98;;
37785;SDS011;23625;48.784;9.336;2022-10-16T04:40:09;5.78;;;1.10;;
37785;SDS011;23625;48.784;9.336;2022-10-16T04:42:35;13.38;;;1.67;;
37785;SDS011;23625;48.784;9.336;2022-10-16T04:45:00;5.13;;;1.80;;
37785;SDS011;23625;48.784;9.336;2022-10-16T04:47:26;11.75;;;1.35;;
37785;SDS011;23625;48.784;9.336;2022-10-16T04:49:52;8.57;;;1.40;;
37785;SDS011;23625;48.784;9.336;2022-10-16T04:52:17;11.43;;;1.27;;
37785;SDS011;23625;48.784;9.336;2022-10-16T04:54:43;4.93;;;1.95;;
37785;SDS011;23625;48.784;9.336;2022-10-16T04:57:10;11.77;;;2.80;;
37785;SDS011;23625;48.784;9.336;2022-10-16T04:59:36;11.90;;;1.50;;
37785;SDS011;23625;48.784;9.336;2022-10-16T05:02:02;11.50;;;1.55;;
37785;SDS011;23625;48.784;9.336;2022-10-16T05:04:27;24.73;;;2.08;;
37785;SDS011;23625;48.784;9.336;2022-10-16T05:06:53;4.38;;;1.88;;
37785;SDS011;23625;48.784;9.336;2022-10-16T05:09:18;13.32;;;1.50;;
37785;SDS011;23625;48.784;9.336;2022-10-16T05:11:44;7.85;;;1.55;;
37785;SDS011;23625;48.784;9.336;2022-10-16T05:14:10;12.43;;;0.95;;
37785;SDS011;23625;48.784;9.336;2022-10-16T05:16:35;9.40;;;1.25;;
37785;SDS011;23625;48.784;9.336;2022-10-16T05:19:01;16.20;;;1.50;;
37785;SDS011;23625;48.784;9.336;2022-10-16T05:21:26;9.95;;;1.80;;
37785;SDS011;23625;48.784;9.336;2022-10-16T05:23:53;8.25;;;2.10;;
37785;SDS011;23625;48.784;9.336;2022-10-16T05:26:19;5.90;;;1.40;;
37785;SDS011;23625;48.784;9.336;2022-10-16T05:28:45;15.27;;;1.58;;
37785;SDS011;23625;48.784;9.336;2022-10-16T05:31:11;5.65;;;1.80;;
37785;SDS011;23625;48.784;9.336;2022-10-16T05:33:36;7.38;;;2.40;;
37785;SDS011;23625;48.784;9.336;2022-10-16T05:36:02;7.10;;;2.30;;
37785;SDS011;23625;48.784;9.336;2022-10-16T05:38:29;9.27;;;2.63;;
37785;SDS011;23625;48.784;9.336;2022-10-16T05:40:55;3.13;;;2.30;;
37785;SDS011;23625;48.784;9.336;2022-10-16T05:43:21;13.45;;;3.00;;
37785;SDS011;23625;48.784;9.336;2022-10-16T05:46:03;9.05;;;3.05;;
37785;SDS011;23625;48.784;9.336;2022-10-16T05:48:30;10.57;;;3.42;;
37785;SDS011;23625;48.784;9.336;2022-10-16T05:50:57;23.17;;;5.00;;
37785;SDS011;23625;48.784;9.336;2022-10-16T05:53:23;9.52;;;3.38;;
37785;SDS011;23625;48.784;9.336;2022-10-16T05:55:54;9.40;;;2.65;;
37785;SDS011;23625;48.784;9.336;2022-10-16T05:58:20;10.43;;;2.40;;
37785;SDS011;23625;48.784;9.336;2022-10-16T06:00:57;9.27;;;2.08;;
37785;SDS011;23625;48.784;9.336;2022-10-16T06:03:27;8.82;;;2.00;;
37785;SDS011;23625;48.784;9.336;2022-10-16T06:05:53;9.23;;;1.77;;
37785;SDS011;23625;48.784;9.336;2022-10-16T06:08:19;26.00;;;2.20;;
37785;SDS011;23625;48.784;9.336;2022-10-16T06:10:46;7.65;;;2.35;;
37785;SDS011;23625;48.784;9.336;2022-10-16T06:13:12;17.80;;;1.70;;
37785;SDS011;23625;48.784;9.336;2022-10-16T06:15:39;12.13;;;2.33;;
37785;SDS011;23625;48.784;9.336;2022-10-16T06:18:09;4.70;;;1.83;;
37785;SDS011;23625;48.784;9.336;2022-10-16T06:20:35;4.15;;;2.60;;
37785;SDS011;23625;48.784;9.336;2022-10-16T06:23:01;8.93;;;2.72;;
37785;SDS011;23625;48.784;9.336;2022-10-16T06:25:28;8.23;;;2.05;;
37785;SDS011;23625;48.784;9.336;2022-10-16T06:27:55;12.00;;;3.03;;
37785;SDS011;23625;48.784;9.336;2022-10-16T06:30:20;9.30;;;2.70;;
37785;SDS011;23625;48.784;9.336;2022-10-16T06:32:46;5.60;;;3.05;;
37785;SDS011;23625;48.784;9.336;2022-10-16T06:35:12;9.50;;;3.42;;
37785;SDS011;23625;48.784;9.336;2022-10-16T06:37:37;9.88;;;3.63;;
37785;SDS011;23625;48.784;9.336;2022-10-16T06:40:03;7.40;;;3.38;;
37785;SDS011;23625;48.784;9.336;2022-10-16T06:42:29;11.43;;;4.32;;
37785;SDS011;23625;48.784;9.336;2022-10-16T06:44:55;6.85;;;4.45;;
37785;SDS011;23625;48.784;9.336;2022-10-16T06:47:20;11.93;;;4.28;;
37785;SDS011;23625;48.784;9.336;2022-10-16T06:49:46;13.25;;;4.80;;
37785;SDS011;23625;48.784;9.336;2022-10-16T06:52:12;13.15;;;4.53;;
37785;SDS011;23625;48.784;9.336;2022-10-16T06:54:37;9.70;;;4.43;;
37785;SDS011;23625;48.784;9.336;2022-10-16T06:57:03;14.70;;;7.60;;
37785;SDS011;23625;48.784;9.336;2022-10-16T06:59:28;18.67;;;6.72;;
37785;SDS011;23625;48.784;9.336;2022-10-16T07:01:54;20.52;;;8.63;;
37785;SDS011;23625;48.784;9.336;2022-10-16T07:04:19;21.85;;;8.65;;
37785;SDS011;23625;48.784;9.336;2022-10-16T07:06:45;18.75;;;7.93;;
37785;SDS011;23625;48.784;9.336;2022-10-16T07:09:10;16.48;;;6.90;;
37785;SDS011;23625;48.784;9.336;2022-10-16T07:11:37;15.57;;;6.63;;
37785;SDS011;23625;48.784;9.336;2022-10-16T07:14:05;14.65;;;7.10;;
37785;SDS011;23625;48.784;9.336;2022-10-16T07:16:40;13.73;;;6.33;;
37785;SDS011;23625;48.784;9.336;2022-10-16T07:19:05;8.38;;;4.80;;
37785;SDS011;23625;48.784;9.336;2022-10-16T07:21:32;14.55;;;4.68;;
37785;SDS011;23625;48.784;9.336;2022-10-16T07:24:01;9.73;;;5.00;;
37785;SDS011;23625;48.784;9.336;2022-10-16T07:26:28;7.07;;;3.53;;
37785;SDS011;23625;48.784;9.336;2022-10-16T07:28:55;11.80;;;3.95;;
37785;SDS011;23625;48.784;9.336;2022-10-16T07:31:23;15.40;;;4.45;;
37785;SDS011;23625;48.784;9.336;2022-10-16T07:33:49;18.35;;;5.95;;
37785;SDS011;23625;48.784;9.336;2022-10-16T07:36:17;7.57;;;4.65;;
37785;SDS011;23625;48.784;9.336;2022-10-16T07:38:44;17.45;;;4.45;;
37785;SDS011;23625;48.784;9.336;2022-10-16T07:41:12;14.27;;;4.75;;
37785;SDS011;23625;48.784;9.336;2022-10-16T07:43:39;15.02;;;4.63;;
37785;SDS011;23625;48.784;9.336;2022-10-16T07:46:05;12.13;;;4.80;;
37785;SDS011;23625;48.784;9.336;2022-10-16T07:48:32;11.40;;;3.83;;
37785;SDS011;23625;48.784;9.336;2022-10-16T07:51:00;21.50;;;4.05;;
37785;SDS011;23625;48.784;9.336;2022-10-16T07:53:28;8.93;;;3.65;;
37785;SDS011;23625;48.784;9.336;2022-10-16T07:55:57;8.25;;;4.03;;
37785;SDS011;23625;48.784;9.336;2022-10-16T07:58:27;16.90;;;4.70;;
37785;SDS011;23625;48.784;9.336;2022-10-16T08:00:54;7.95;;;4.10;;
37785;SDS011;23625;48.784;9.336;2022-10-16T08:03:20;13.02;;;3.78;;
37785;SDS011;23625;48.784;9.336;2022-10-16T08:05:45;12.75;;;3.50;;
37785;SDS011;23625;48.784;9.336;2022-10-16T08:08:12;12.63;;;4.00;;
37785;SDS011;23625;48.784;9.336;2022-10-16T08:10:39;9.57;;;3.33;;
37785;SDS011;23625;48.784;9.336;2022-10-16T08:13:05;15.95;;;3.63;;
37785;SDS011;23625;48.784;9.336;2022-10-16T08:15:30;9.35;;;3.28;;
37785;SDS011;23625;48.784;9.336;2022-10-16T08:18:00;11.30;;;3.28;;
37785;SDS011;23625;48.784;9.336;2022-10-16T08:20:27;10.70;;;3.00;;
37785;SDS011;23625;48.784;9.336;2022-10-16T08:22:54;11.93;;;2.13;;
37785;SDS011;23625;48.784;9.336;2022-10-16T08:25:21;8.27;;;1.58;;
37785;SDS011;23625;48.784;9.336;2022-10-16T08:27:47;18.75;;;1.98;;
37785;SDS011;23625;48.784;9.336;2022-10-16T08:30:13;3.40;;;1.50;;
37785;SDS011;23625;48.784;9.336;2022-10-16T08:32:39;3.08;;;1.15;;
37785;SDS011;23625;48.784;9.336;2022-10-16T08:35:07;8.63;;;1.33;;
37785;SDS011;23625;48.784;9.336;2022-10-16T08:37:34;13.27;;;1.48;;
37785;SDS011;23625;48.784;9.336;2022-10-16T08:39:59;4.82;;;1.08;;
37785;SDS011;23625;48.784;9.336;2022-10-16T08:45:51;5.20;;;1.30;;
37785;SDS011;23625;48.784;9.336;2022-10-16T08:54:15;1.75;;;1.00;;
37785;SDS011;23625;48.784;9.336;2022-10-16T08:56:54;5.30;;;1.77;;
37785;SDS011;23625;48.784;9.336;2022-10-16T08:59:29;9.38;;;2.30;;
37785;SDS011;23625;48.784;9.336;2022-10-16T09:01:55;3.47;;;1.35;;
37785;SDS011;23625;48.784;9.336;2022-10-16T09:07:01;5.90;;;1.05;;
37785;SDS011;23625;48.784;9.336;2022-10-16T09:12:17;8.93;;;1.27;;
37785;SDS011;23625;48.784;9.336;2022-10-16T09:25:49;4.20;;;0.98;;
37785;SDS011;23625;48.784;9.336;2022-10-16T09:28:16;5.20;;;1.23;;
37785;SDS011;23625;48.784;9.336;2022-10-16T09:30:43;4.95;;;1.02;;
37785;SDS011;23625;48.784;9.336;2022-10-16T09:33:10;6.60;;;0.98;;
37785;SDS011;23625;48.784;9.336;2022-10-16T09:35:40;1.98;;;1.10;;
37785;SDS011;23625;48.784;9.336;2022-10-16T09:38:21;10.25;;;1.23;;
37785;SDS011;23625;48.784;9.336;2022-10-16T09:40:49;6.80;;;1.17;;
37785;SDS011;23625;48.784;9.336;2022-10-16T09:43:20;3.00;;;1.23;;
37785;SDS011;23625;48.784;9.336;2022-10-16T09:46:00;1.38;;;0.75;;
37785;SDS011;23625;48.784;9.336;2022-10-16T09:48:49;2.90;;;0.95;;
37785;SDS011;23625;48.784;9.336;2022-10-16T09:51:18;4.80;;;1.15;;
37785;SDS011;23625;48.784;9.336;2022-10-16T09:53:45;2.97;;;1.40;;
37785;SDS011;23625;48.784;9.336;2022-10-16T09:56:20;2.92;;;1.08;;
37785;SDS011;23625;48.784;9.336;2022-10-16T09:58:51;2.42;;;1.20;;
37785;SDS011;23625;48.784;9.336;2022-10-16T10:01:18;3.78;;;1.13;;
37785;SDS011;23625;48.784;9.336;2022-10-16T10:03:45;6.07;;;1.20;;
37785;SDS011;23625;48.784;9.336;2022-10-16T10:06:23;4.75;;;1.13;;
37785;SDS011;23625;48.784;9.336;2022-10-16T10:09:24;2.70;;;1.13;;
37785;SDS011;23625;48.784;9.336;2022-10-16T10:11:51;7.75;;;1.38;;
37785;SDS011;23625;48.784;9.336;2022-10-16T10:14:30;4.35;;;1.10;;
37785;SDS011;23625;48.784;9.336;2022-10-16T10:19:30;2.58;;;1.13;;
37785;SDS011;23625;48.784;9.336;2022-10-16T10:22:13;10.75;;;1.10;;
37785;SDS011;23625;48.784;9.336;2022-10-16T10:24:44;4.43;;;1.25;;
37785;SDS011;23625;48.784;9.336;2022-10-16T10:27:20;3.42;;;1.20;;
37785;SDS011;23625;48.784;9.336;2022-10-16T10:29:57;4.43;;;1.13;;
37785;SDS011;23625;48.784;9.336;2022-10-16T10:35:17;3.85;;;1.00;;
37785;SDS011;23625;48.784;9.336;2022-10-16T10:40:34;4.30;;;1.63;;
37785;SDS011;23625;48.784;9.336;2022-10-16T10:46:17;3.90;;;1.30;;
37785;SDS011;23625;48.784;9.336;2022-10-16T10:49:06;10.05;;;1.55;;
37785;SDS011;23625;48.784;9.336;2022-10-16T10:54:22;1.25;;;1.15;;
37785;SDS011;23625;48.784;9.336;2022-10-16T10:57:08;15.57;;;1.38;;
37785;SDS011;23625;48.784;9.336;2022-10-16T10:59:50;9.27;;;1.10;;
37785;SDS011;23625;48.784;9.336;2022-10-16T11:10:46;4.63;;;1.10;;
37785;SDS011;23625;48.784;9.336;2022-10-16T11:16:23;8.10;;;1.52;;
37785;SDS011;23625;48.784;9.336;2022-10-16T11:19:02;5.35;;;1.13;;
37785;SDS011;23625;48.784;9.336;2022-10-16T11:21:36;3.15;;;0.90;;
37785;SDS011;23625;48.784;9.336;2022-10-16T11:24:18;10.15;;;2.75;;
37785;SDS011;23625;48.784;9.336;2022-10-16T11:26:53;4.68;;;1.10;;
37785;SDS011;23625;48.784;9.336;2022-10-16T11:29:23;3.90;;;1.10;;
37785;SDS011;23625;48.784;9.336;2022-10-16T11:31:55;2.42;;;0.95;;
37785;SDS011;23625;48.784;9.336;2022-10-16T11:34:35;6.47;;;1.30;;
37785;SDS011;23625;48.784;9.336;2022-10-16T11:37:10;7.30;;;1.30;;
37785;SDS011;23625;48.784;9.336;2022-10-16T11:39:42;1.73;;;0.98;;
37785;SDS011;23625;48.784;9.336;2022-10-16T11:44:52;4.88;;;1.13;;
37785;SDS011;23625;48.784;9.336;2022-10-16T11:49:57;3.80;;;1.05;;
37785;SDS011;23625;48.784;9.336;2022-10-16T11:52:28;5.32;;;0.88;;
37785;SDS011;23625;48.784;9.336;2022-10-16T11:55:13;4.53;;;1.00;;
37785;SDS011;23625;48.784;9.336;2022-10-16T11:57:45;3.45;;;0.75;;
37785;SDS011;23625;48.784;9.336;2022-10-16T12:05:42;7.80;;;1.05;;
37785;SDS011;23625;48.784;9.336;2022-10-16T12:08:23;2.47;;;1.15;;
37785;SDS011;23625;48.784;9.336;2022-10-16T12:10:51;3.97;;;1.10;;
37785;SDS011;23625;48.784;9.336;2022-10-16T12:13:37;4.80;;;0.90;;
37785;SDS011;23625;48.784;9.336;2022-10-16T12:16:20;3.95;;;0.85;;
37785;SDS011;23625;48.784;9.336;2022-10-16T12:18:48;5.88;;;1.00;;
37785;SDS011;23625;48.784;9.336;2022-10-16T12:21:14;2.42;;;1.10;;
37785;SDS011;23625;48.784;9.336;2022-10-16T12:26:23;6.57;;;0.73;;
37785;SDS011;23625;48.784;9.336;2022-10-16T12:30:02;4.03;;;0.90;;
37785;SDS011;23625;48.784;9.336;2022-10-16T12:31:59;2.72;;;1.00;;
37785;SDS011;23625;48.784;9.336;2022-10-16T12:37:14;2.17;;;1.10;;
37785;SDS011;23625;48.784;9.336;2022-10-16T12:39:45;7.75;;;0.90;;
37785;SDS011;23625;48.784;9.336;2022-10-16T12:44:54;3.33;;;0.93;;
37785;SDS011;23625;48.784;9.336;2022-10-16T12:49:55;4.25;;;0.57;;
37785;SDS011;23625;48.784;9.336;2022-10-16T12:54:58;3.88;;;0.80;;
37785;SDS011;23625;48.784;9.336;2022-10-16T13:00:53;6.88;;;1.02;;
37785;SDS011;23625;48.784;9.336;2022-10-16T13:27:59;4.50;;;1.38;;
37785;SDS011;23625;48.784;9.336;2022-10-16T13:30:30;5.57;;;1.05;;
37785;SDS011;23625;48.784;9.336;2022-10-16T13:33:12;6.38;;;1.20;;
37785;SDS011;23625;48.784;9.336;2022-10-16T13:35:51;5.85;;;0.90;;
37785;SDS011;23625;48.784;9.336;2022-10-16T13:38:22;5.35;;;1.00;;
37785;SDS011;23625;48.784;9.336;2022-10-16T13:40:56;2.83;;;1.35;;
37785;SDS011;23625;48.784;9.336;2022-10-16T13:43:37;1.50;;;1.10;;
37785;SDS011;23625;48.784;9.336;2022-10-16T13:46:05;6.45;;;1.17;;
37785;SDS011;23625;48.784;9.336;2022-10-16T13:48:42;3.50;;;1.27;;
37785;SDS011;23625;48.784;9.336;2022-10-16T13:51:13;2.85;;;1.15;;
37785;SDS011;23625;48.784;9.336;2022-10-16T13:53:40;1.88;;;1.08;;
37785;SDS011;23625;48.784;9.336;2022-10-16T13:56:09;3.85;;;1.20;;
37785;SDS011;23625;48.784;9.336;2022-10-16T13:58:39;3.42;;;1.10;;
37785;SDS011;23625;48.784;9.336;2022-10-16T14:01:15;5.30;;;1.40;;
37785;SDS011;23625;48.784;9.336;2022-10-16T14:03:47;1.60;;;1.13;;
37785;SDS011;23625;48.784;9.336;2022-10-16T14:06:15;2.28;;;1.30;;
37785;SDS011;23625;48.784;9.336;2022-10-16T14:08:44;2.85;;;1.27;;
37785;SDS011;23625;48.784;9.336;2022-10-16T14:11:12;2.80;;;1.20;;
37785;SDS011;23625;48.784;9.336;2022-10-16T14:13:39;1.08;;;0.98;;
37785;SDS011;23625;48.784;9.336;2022-10-16T14:16:09;4.63;;;1.50;;
37785;SDS011;23625;48.784;9.336;2022-10-16T14:18:40;11.20;;;1.80;;
37785;SDS011;23625;48.784;9.336;2022-10-16T14:21:07;10.48;;;1.30;;
37785;SDS011;23625;48.784;9.336;2022-10-16T14:23:39;11.20;;;1.73;;
37785;SDS011;23625;48.784;9.336;2022-10-16T14:26:11;14.57;;;1.80;;
37785;SDS011;23625;48.784;9.336;2022-10-16T14:28:38;28.45;;;1.58;;
37785;SDS011;23625;48.784;9.336;2022-10-16T14:33:49;7.88;;;1.13;;
37785;SDS011;23625;48.784;9.336;2022-10-16T14:36:15;19.63;;;1.58;;
37785;SDS011;23625;48.784;9.336;2022-10-16T14:38:48;11.00;;;1.23;;
37785;SDS011;23625;48.784;9.336;2022-10-16T14:41:14;11.02;;;1.50;;
37785;SDS011;23625;48.784;9.336;2022-10-16T14:43:41;14.80;;;1.95;;
37785;SDS011;23625;48.784;9.336;2022-10-16T14:46:17;9.45;;;1.80;;
37785;SDS011;23625;48.784;9.336;2022-10-16T14:48:46;12.85;;;1.60;;
37785;SDS011;23625;48.784;9.336;2022-10-16T14:51:15;14.68;;;1.27;;
37785;SDS011;23625;48.784;9.336;2022-10-16T14:53:42;21.23;;;1.83;;
37785;SDS011;23625;48.784;9.336;2022-10-16T14:56:08;13.60;;;1.50;;
37785;SDS011;23625;48.784;9.336;2022-10-16T14:58:40;9.73;;;1.70;;
37785;SDS011;23625;48.784;9.336;2022-10-16T15:01:07;6.93;;;1.30;;
37785;SDS011;23625;48.784;9.336;2022-10-16T15:03:35;17.75;;;2.20;;
37785;SDS011;23625;48.784;9.336;2022-10-16T15:06:01;14.80;;;1.60;;
37785;SDS011;23625;48.784;9.336;2022-10-16T15:08:27;10.75;;;1.25;;
37785;SDS011;23625;48.784;9.336;2022-10-16T15:10:52;12.05;;;1.67;;
37785;SDS011;23625;48.784;9.336;2022-10-16T15:13:18;16.35;;;1.85;;
37785;SDS011;23625;48.784;9.336;2022-10-16T15:15:44;7.35;;;1.92;;
37785;SDS011;23625;48.784;9.336;2022-10-16T15:18:10;13.05;;;1.40;;
37785;SDS011;23625;48.784;9.336;2022-10-16T15:20:38;12.07;;;1.80;;
37785;SDS011;23625;48.784;9.336;2022-10-16T15:23:05;12.82;;;1.77;;
37785;SDS011;23625;48.784;9.336;2022-10-16T15:25:42;23.15;;;1.92;;
37785;SDS011;23625;48.784;9.336;2022-10-16T15:28:09;15.73;;;1.55;;
37785;SDS011;23625;48.784;9.336;2022-10-16T15:30:36;17.00;;;1.80;;
37785;SDS011;23625;48.784;9.336;2022-10-16T15:33:03;10.85;;;1.55;;
37785;SDS011;23625;48.784;9.336;2022-10-16T15:35:29;14.45;;;1.98;;
37785;SDS011;23625;48.784;9.336;2022-10-16T15:37:55;15.25;;;1.42;;
37785;SDS011;23625;48.784;9.336;2022-10-16T15:40:21;6.68;;;1.48;;
37785;SDS011;23625;48.784;9.336;2022-10-16T15:42:47;22.85;;;1.65;;
37785;SDS011;23625;48.784;9.336;2022-10-16T15:45:14;13.88;;;2.28;;
37785;SDS011;23625;48.784;9.336;2022-10-16T15:47:43;23.70;;;2.20;;
37785;SDS011;23625;48.784;9.336;2022-10-16T15:50:10;19.38;;;2.38;;
37785;SDS011;23625;48.784;9.336;2022-10-16T15:52:37;21.35;;;2.67;;
37785;SDS011;23625;48.784;9.336;2022-10-16T15:55:04;11.90;;;1.77;;
37785;SDS011;23625;48.784;9.336;2022-10-16T15:57:35;8.77;;;1.30;;
37785;SDS011;23625;48.784;9.336;2022-10-16T16:00:04;11.80;;;1.65;;
37785;SDS011;23625;48.784;9.336;2022-10-16T16:02:31;18.45;;;2.00;;
37785;SDS011;23625;48.784;9.336;2022-10-16T16:04:57;18.88;;;1.75;;
37785;SDS011;23625;48.784;9.336;2022-10-16T16:07:23;15.15;;;2.38;;
37785;SDS011;23625;48.784;9.336;2022-10-16T16:09:48;11.65;;;1.80;;
37785;SDS011;23625;48.784;9.336;2022-10-16T16:12:14;19.50;;;2.10;;
37785;SDS011;23625;48.784;9.336;2022-10-16T16:14:39;10.48;;;2.45;;
37785;SDS011;23625;48.784;9.336;2022-10-16T16:17:05;19.58;;;1.75;;
37785;SDS011;23625;48.784;9.336;2022-10-16T16:19:30;20.98;;;2.15;;
37785;SDS011;23625;48.784;9.336;2022-10-16T16:21:56;18.00;;;1.63;;
37785;SDS011;23625;48.784;9.336;2022-10-16T16:24:24;12.60;;;1.67;;
37785;SDS011;23625;48.784;9.336;2022-10-16T16:26:50;9.38;;;2.30;;
37785;SDS011;23625;48.784;9.336;2022-10-16T16:29:16;22.55;;;1.83;;
37785;SDS011;23625;48.784;9.336;2022-10-16T16:31:41;31.30;;;2.17;;
37785;SDS011;23625;48.784;9.336;2022-10-16T16:34:08;14.45;;;1.98;;
37785;SDS011;23625;48.784;9.336;2022-10-16T16:36:34;11.48;;;1.92;;
37785;SDS011;23625;48.784;9.336;2022-10-16T16:39:00;20.73;;;2.33;;
37785;SDS011;23625;48.784;9.336;2022-10-16T16:41:27;13.38;;;2.05;;
37785;SDS011;23625;48.784;9.336;2022-10-16T16:43:55;25.27;;;2.75;;
37785;SDS011;23625;48.784;9.336;2022-10-16T16:46:21;25.52;;;3.08;;
37785;SDS011;23625;48.784;9.336;2022-10-16T16:48:47;21.92;;;2.35;;
37785;SDS011;23625;48.784;9.336;2022-10-16T16:51:15;28.75;;;2.35;;
37785;SDS011;23625;48.784;9.336;2022-10-16T16:53:48;13.15;;;2.08;;
37785;SDS011;23625;48.784;9.336;2022-10-16T16:56:15;13.38;;;2.15;;
37785;SDS011;23625;48.784;9.336;2022-10-16T16:58:43;21.42;;;2.17;;
37785;SDS011;23625;48.784;9.336;2022-10-16T17:01:10;12.77;;;1.98;;
37785;SDS011;23625;48.784;9.336;2022-10-16T17:03:37;29.00;;;3.13;;
37785;SDS011;23625;48.784;9.336;2022-10-16T17:08:30;16.17;;;2.03;;